Time;durP1;ratioP1;P1;durP2;ratioP2;P2;SDS_P1;SDS_P2;PMS_P1;PMS_P2;Temp;Humidity;BMP_temperature;BMP_pressure;BME280_temperature;BME280_humidity;BME280_pressure;Samples;Min_cycle;Max_cycle;Signal;HPM_P1;HPM_P2
2023/10/30 00:02:12;;;;;;;15.05;10.30;;;13.60;99.90;;;;;;4940119;29;20032;-91
2023/10/30 00:04:42;;;;;;;15.13;9.40;;;13.70;99.90;;;;;;4923235;29;20042;-91
2023/10/30 00:07:08;;;;;;;12.82;9.35;;;13.70;99.90;;;;;;4923337;29;20037;-91
2023/10/30 00:09:35;;;;;;;15.48;9.73;;;13.70;99.90;;;;;;4923102;29;20028;-91
2023/10/30 00:12:01;;;;;;;17.33;10.65;;;13.60;99.90;;;;;;4923023;29;20082;-91
2023/10/30 00:14:28;;;;;;;17.38;10.82;;;13.60;99.90;;;;;;4918044;29;20030;-91
2023/10/30 00:16:55;;;;;;;18.58;11.15;;;13.50;99.90;;;;;;4909774;29;20038;-90
2023/10/30 00:19:21;;;;;;;16.45;11.40;;;13.50;99.90;;;;;;4903861;29;20028;-91
2023/10/30 00:21:51;;;;;;;19.30;11.18;;;13.50;99.90;;;;;;4903961;29;20103;-90
2023/10/30 00:24:17;;;;;;;17.08;11.25;;;13.50;99.90;;;;;;4904118;29;20023;-91
2023/10/30 00:26:44;;;;;;;15.13;10.93;;;13.50;99.90;;;;;;4903946;29;20043;-91
2023/10/30 00:29:12;;;;;;;15.25;10.40;;;13.50;99.90;;;;;;4914191;29;20027;-90
2023/10/30 00:31:39;;;;;;;14.70;10.55;;;13.40;99.90;;;;;;4926000;29;20523;-91
2023/10/30 00:34:09;;;;;;;14.20;10.57;;;13.30;99.90;;;;;;4926063;29;20028;-91
2023/10/30 00:36:36;;;;;;;17.65;11.45;;;13.30;99.90;;;;;;4926083;29;20023;-91
2023/10/30 00:39:03;;;;;;;19.02;11.52;;;13.30;99.90;;;;;;4926193;29;20023;-91
2023/10/30 00:41:31;;;;;;;17.33;11.55;;;13.20;99.90;;;;;;4926061;29;20481;-91
2023/10/30 00:43:57;;;;;;;14.13;9.85;;;13.30;99.90;;;;;;4922933;29;20030;-91
2023/10/30 00:46:24;;;;;;;11.57;10.38;;;13.30;99.90;;;;;;4938068;29;20059;-91
2023/10/30 00:48:51;;;;;;;18.20;11.27;;;13.30;99.90;;;;;;4923035;29;20061;-91
2023/10/30 00:51:17;;;;;;;15.25;10.57;;;13.30;99.90;;;;;;4922913;29;20055;-91
2023/10/30 00:53:44;;;;;;;13.00;10.90;;;13.20;99.90;;;;;;4938587;29;20026;-91
2023/10/30 00:56:13;;;;;;;19.00;12.15;;;13.20;99.90;;;;;;4938630;29;20115;-91
2023/10/30 00:58:40;;;;;;;15.25;11.27;;;13.20;99.90;;;;;;4906710;29;20500;-90
2023/10/30 01:01:12;;;;;;;18.40;11.65;;;13.10;99.90;;;;;;4906783;29;20036;-91
2023/10/30 01:03:39;;;;;;;16.77;11.32;;;13.10;99.90;;;;;;4906675;29;20027;-91
2023/10/30 01:06:05;;;;;;;15.75;10.80;;;13.10;99.90;;;;;;4922402;29;20032;-91
2023/10/30 01:08:32;;;;;;;14.45;10.75;;;13.10;99.90;;;;;;4938086;29;20114;-91
2023/10/30 01:10:58;;;;;;;16.27;10.43;;;13.10;99.90;;;;;;4922142;29;20031;-91
2023/10/30 01:13:25;;;;;;;13.50;10.30;;;13.10;99.90;;;;;;4938070;29;20541;-90
2023/10/30 01:15:55;;;;;;;12.38;10.02;;;13.10;99.90;;;;;;4906427;29;20032;-91
2023/10/30 01:18:22;;;;;;;13.38;10.50;;;13.00;99.90;;;;;;4906480;29;20028;-91
2023/10/30 01:20:48;;;;;;;17.23;10.57;;;13.00;99.90;;;;;;4906300;29;20038;-90
2023/10/30 01:23:15;;;;;;;14.68;9.95;;;13.00;99.90;;;;;;4917078;29;20023;-91
2023/10/30 01:25:42;;;;;;;16.23;10.40;;;13.00;99.90;;;;;;4925032;29;20386;-91
2023/10/30 01:28:09;;;;;;;14.02;10.77;;;13.00;99.90;;;;;;4925306;29;20079;-91
2023/10/30 01:30:35;;;;;;;16.70;11.02;;;13.00;99.90;;;;;;4925355;29;20089;-90
2023/10/30 01:33:01;;;;;;;13.05;10.05;;;12.90;99.90;;;;;;4941117;29;20540;-91
2023/10/30 01:35:28;;;;;;;18.38;11.68;;;12.90;99.90;;;;;;4925188;29;20027;-90
2023/10/30 01:37:54;;;;;;;16.25;10.90;;;12.90;99.90;;;;;;4925301;29;20039;-91
2023/10/30 01:40:21;;;;;;;14.45;10.43;;;12.90;99.90;;;;;;4924169;29;20028;-91
2023/10/30 01:42:47;;;;;;;12.68;10.13;;;12.90;99.90;;;;;;4921583;29;20024;-91
2023/10/30 01:45:14;;;;;;;11.65;10.30;;;12.90;99.90;;;;;;4905610;29;20501;-91
2023/10/30 01:47:41;;;;;;;17.27;10.40;;;12.80;99.90;;;;;;4906040;29;20036;-91
2023/10/30 01:50:09;;;;;;;13.63;10.90;;;12.80;99.90;;;;;;4905880;29;20462;-91
2023/10/30 01:52:36;;;;;;;15.30;11.02;;;12.70;99.90;;;;;;4907655;29;20028;-91
2023/10/30 01:55:05;;;;;;;19.45;10.77;;;12.70;99.90;;;;;;4905653;29;20119;-91
2023/10/30 01:57:32;;;;;;;16.08;11.30;;;12.70;99.90;;;;;;4905945;29;20397;-91
2023/10/30 01:59:59;;;;;;;15.93;10.20;;;12.70;99.90;;;;;;4905636;29;20034;-91
2023/10/30 02:02:29;;;;;;;12.80;10.15;;;12.70;99.90;;;;;;4908518;29;20035;-91
2023/10/30 02:04:55;;;;;;;15.68;10.35;;;12.70;99.90;;;;;;4924419;29;20032;-91
2023/10/30 02:07:22;;;;;;;16.00;10.70;;;12.70;99.90;;;;;;4924617;29;20035;-92
2023/10/30 02:09:50;;;;;;;11.35;9.93;;;12.70;99.90;;;;;;4924703;29;20056;-90
2023/10/30 02:12:17;;;;;;;16.20;10.35;;;12.70;99.90;;;;;;4924664;29;20032;-91
2023/10/30 02:14:43;;;;;;;13.27;9.85;;;12.60;99.90;;;;;;4924298;29;20389;-91
2023/10/30 02:17:10;;;;;;;14.18;10.07;;;12.50;99.90;;;;;;4924462;29;20023;-90
2023/10/30 02:19:36;;;;;;;15.07;10.60;;;12.50;99.90;;;;;;4924526;29;20039;-90
2023/10/30 02:22:03;;;;;;;16.95;9.85;;;12.50;99.90;;;;;;4923939;29;20055;-90
2023/10/30 02:24:30;;;;;;;12.82;10.25;;;12.50;99.90;;;;;;4924138;29;20038;-91
2023/10/30 02:26:57;;;;;;;12.70;9.65;;;12.50;99.90;;;;;;4924397;29;20086;-91
2023/10/30 02:29:24;;;;;;;20.05;10.10;;;12.50;99.90;;;;;;4924199;29;20079;-91
2023/10/30 02:31:50;;;;;;;16.40;10.48;;;12.50;99.90;;;;;;4924173;29;20027;-91
2023/10/30 02:34:16;;;;;;;13.18;9.85;;;12.50;99.90;;;;;;4923619;29;20051;-91
2023/10/30 02:36:45;;;;;;;16.27;10.50;;;12.50;99.90;;;;;;4924098;29;20485;-92
2023/10/30 02:39:11;;;;;;;17.38;10.45;;;12.40;99.90;;;;;;4923889;29;20118;-91
2023/10/30 02:41:37;;;;;;;15.27;10.18;;;12.40;99.90;;;;;;4924021;29;20026;-90
2023/10/30 02:44:04;;;;;;;12.38;10.30;;;12.40;99.90;;;;;;4923711;29;20118;-91
2023/10/30 02:46:30;;;;;;;13.43;10.27;;;12.40;99.90;;;;;;4923796;29;20054;-91
2023/10/30 02:49:00;;;;;;;14.45;10.05;;;12.40;99.90;;;;;;4939686;29;20035;-91
2023/10/30 02:51:27;;;;;;;12.77;10.32;;;12.30;99.90;;;;;;4919665;29;20082;-92
2023/10/30 02:53:53;;;;;;;11.38;10.27;;;12.30;99.90;;;;;;4904791;29;20148;-91
2023/10/30 02:56:19;;;;;;;15.10;10.95;;;12.30;99.90;;;;;;4920327;29;20055;-91
2023/10/30 02:58:46;;;;;;;12.40;9.90;;;12.30;99.90;;;;;;4905172;29;20032;-91
2023/10/30 03:01:12;;;;;;;14.32;10.05;;;12.30;99.90;;;;;;4925335;29;20038;-90
2023/10/30 03:03:39;;;;;;;12.70;10.20;;;12.30;99.90;;;;;;4923543;29;20031;-91
2023/10/30 03:06:06;;;;;;;12.52;10.02;;;12.20;99.90;;;;;;4923498;29;20043;-90
2023/10/30 03:08:33;;;;;;;15.18;9.77;;;12.20;99.90;;;;;;4923816;29;20027;-91
2023/10/30 03:10:59;;;;;;;17.77;10.20;;;12.20;99.90;;;;;;4923513;29;20038;-91
2023/10/30 03:13:25;;;;;;;17.45;10.55;;;12.10;99.90;;;;;;4919874;29;20114;-91
2023/10/30 03:15:51;;;;;;;13.25;10.60;;;12.10;99.90;;;;;;4904027;29;20031;-90
2023/10/30 03:18:20;;;;;;;15.57;10.25;;;12.10;99.90;;;;;;4920329;29;20142;-90
2023/10/30 03:20:46;;;;;;;14.65;9.85;;;12.10;99.90;;;;;;4906169;29;20032;-91
2023/10/30 03:23:14;;;;;;;17.83;10.05;;;12.10;99.90;;;;;;4923592;29;20050;-90
2023/10/30 03:25:40;;;;;;;14.43;10.43;;;12.10;99.90;;;;;;4923317;29;20039;-91
2023/10/30 03:28:10;;;;;;;15.05;10.52;;;12.10;99.90;;;;;;4923567;29;20106;-91
2023/10/30 03:30:36;;;;;;;16.48;11.05;;;12.10;99.90;;;;;;4941649;29;20035;-90
2023/10/30 03:33:04;;;;;;;15.38;10.50;;;12.10;99.90;;;;;;4922818;29;20078;-91
2023/10/30 03:35:36;;;;;;;14.82;9.75;;;12.00;99.90;;;;;;4903708;29;20127;-90
2023/10/30 03:38:02;;;;;;;19.25;10.30;;;12.00;99.90;;;;;;4904215;29;20401;-91
2023/10/30 03:40:29;;;;;;;14.77;10.10;;;12.00;99.90;;;;;;4919974;29;20038;-91
2023/10/30 03:42:55;;;;;;;14.25;9.85;;;12.00;99.90;;;;;;4904036;29;20647;-91
2023/10/30 03:45:21;;;;;;;12.45;9.55;;;12.00;99.90;;;;;;4919539;29;20064;-90
2023/10/30 03:47:48;;;;;;;15.38;10.35;;;12.00;99.90;;;;;;4919986;29;20035;-91
2023/10/30 03:50:16;;;;;;;16.08;10.95;;;12.00;99.90;;;;;;4904737;29;20039;-90
2023/10/30 03:52:44;;;;;;;15.52;10.32;;;11.90;99.90;;;;;;4917148;29;20028;-91
2023/10/30 03:55:10;;;;;;;17.95;11.18;;;11.90;99.90;;;;;;4919891;29;20493;-90
2023/10/30 03:57:40;;;;;;;20.13;11.65;;;11.80;99.90;;;;;;4919838;29;20087;-91
2023/10/30 04:00:08;;;;;;;18.17;13.10;;;11.80;99.90;;;;;;4919869;29;20052;-90
2023/10/30 04:02:38;;;;;;;19.50;13.18;;;11.90;99.90;;;;;;4921714;29;20035;-90
2023/10/30 04:05:05;;;;;;;21.02;13.07;;;11.90;99.90;;;;;;4923383;29;20067;-91
2023/10/30 04:07:35;;;;;;;20.33;11.88;;;11.90;99.90;;;;;;4925729;29;20059;-91
2023/10/30 04:10:02;;;;;;;22.95;12.60;;;11.90;99.90;;;;;;4910073;29;20035;-89
2023/10/30 04:12:29;;;;;;;17.67;12.80;;;11.80;99.90;;;;;;4907810;29;20092;-89
2023/10/30 04:14:55;;;;;;;17.60;11.40;;;11.80;99.90;;;;;;4907554;29;20031;-88
2023/10/30 04:17:22;;;;;;;15.65;11.85;;;11.80;99.90;;;;;;4923690;29;20035;-90
2023/10/30 04:19:48;;;;;;;19.67;12.48;;;11.80;99.90;;;;;;4923510;29;20023;-89
2023/10/30 04:22:15;;;;;;;19.05;12.18;;;11.70;99.90;;;;;;4920952;29;20024;-91
2023/10/30 04:24:41;;;;;;;21.98;12.50;;;11.70;99.90;;;;;;4928417;29;20028;-90
2023/10/30 04:27:08;;;;;;;24.10;12.88;;;11.70;99.90;;;;;;4937111;29;20031;-90
2023/10/30 04:29:34;;;;;;;18.73;13.00;;;11.70;99.90;;;;;;4933986;29;20042;-91
2023/10/30 04:32:01;;;;;;;20.65;13.25;;;11.60;99.90;;;;;;4928287;29;20109;-90
2023/10/30 04:34:31;;;;;;;23.00;13.02;;;11.60;99.90;;;;;;4931276;29;20496;-91
2023/10/30 04:36:57;;;;;;;21.13;12.45;;;11.60;99.90;;;;;;4929895;29;20039;-90
2023/10/30 04:39:24;;;;;;;21.73;11.98;;;11.60;99.90;;;;;;4928422;29;20086;-91
2023/10/30 04:41:54;;;;;;;19.15;12.38;;;11.60;99.90;;;;;;4939654;29;20031;-91
2023/10/30 04:44:22;;;;;;;14.35;11.85;;;11.60;99.90;;;;;;4937184;29;20039;-91
2023/10/30 04:46:49;;;;;;;16.35;10.90;;;11.60;99.90;;;;;;4932425;29;20051;-90
2023/10/30 04:49:16;;;;;;;14.75;11.13;;;11.60;99.90;;;;;;4927972;29;20032;-91
2023/10/30 04:51:42;;;;;;;18.10;11.77;;;11.50;99.90;;;;;;4928087;29;20027;-89
2023/10/30 04:54:09;;;;;;;19.92;11.85;;;11.60;99.90;;;;;;4930833;29;20074;-89
2023/10/30 04:56:36;;;;;;;15.98;11.27;;;11.50;99.90;;;;;;4930916;29;20032;-88
2023/10/30 04:59:03;;;;;;;17.92;12.32;;;11.40;99.90;;;;;;4927204;29;20031;-90
2023/10/30 05:01:29;;;;;;;22.95;12.00;;;11.40;99.90;;;;;;4922447;29;20019;-88
2023/10/30 05:04:02;;;;;;;21.35;11.88;;;11.30;99.90;;;;;;4922687;29;20032;-89
2023/10/30 05:06:28;;;;;;;20.10;11.97;;;11.30;99.90;;;;;;4906637;29;20042;-90
2023/10/30 05:08:55;;;;;;;21.58;11.82;;;11.40;99.90;;;;;;4906822;29;20032;-90
2023/10/30 05:11:22;;;;;;;22.85;12.98;;;11.40;99.90;;;;;;4907274;29;20027;-92
2023/10/30 05:13:48;;;;;;;16.65;11.88;;;11.30;99.90;;;;;;4921676;29;20166;-90
2023/10/30 05:16:15;;;;;;;17.88;12.98;;;11.30;99.90;;;;;;4906631;29;20114;-90
2023/10/30 05:18:42;;;;;;;19.13;12.05;;;11.40;99.90;;;;;;4907097;29;20027;-90
2023/10/30 05:21:08;;;;;;;21.73;13.15;;;11.30;99.90;;;;;;4906562;29;20394;-85
2023/10/30 05:23:34;;;;;;;14.30;12.43;;;11.40;99.90;;;;;;4906326;29;20107;-85
2023/10/30 05:26:01;;;;;;;18.83;12.45;;;11.20;99.90;;;;;;4921730;29;20046;-85
2023/10/30 05:28:30;;;;;;;19.67;11.75;;;11.20;99.90;;;;;;4906107;29;20030;-86
2023/10/30 05:30:57;;;;;;;21.90;12.90;;;11.30;99.90;;;;;;4906232;29;20070;-85
2023/10/30 05:33:23;;;;;;;16.42;12.05;;;11.30;99.90;;;;;;4906053;29;20099;-86
2023/10/30 05:35:53;;;;;;;23.65;12.43;;;11.30;99.90;;;;;;4909920;29;20059;-86
2023/10/30 05:38:19;;;;;;;17.60;11.43;;;11.40;99.90;;;;;;4906000;29;20031;-84
2023/10/30 05:40:46;;;;;;;20.05;13.02;;;11.50;99.90;;;;;;4906014;29;20036;-86
2023/10/30 05:43:13;;;;;;;17.35;12.35;;;11.50;99.90;;;;;;4905868;29;20051;-86
2023/10/30 05:45:40;;;;;;;21.60;11.65;;;11.60;99.90;;;;;;4916481;29;20051;-85
2023/10/30 05:48:06;;;;;;;17.92;11.80;;;11.70;99.90;;;;;;4924569;29;20027;-87
2023/10/30 05:50:33;;;;;;;15.50;11.68;;;11.70;99.90;;;;;;4924511;29;20054;-86
2023/10/30 05:52:59;;;;;;;18.48;12.57;;;11.80;99.90;;;;;;4924895;29;20031;-85
2023/10/30 05:55:26;;;;;;;18.95;12.63;;;11.80;99.90;;;;;;4924694;29;20035;-85
2023/10/30 05:57:52;;;;;;;20.05;12.23;;;11.90;99.90;;;;;;4940509;29;20023;-85
2023/10/30 06:00:19;;;;;;;15.57;12.27;;;12.00;99.90;;;;;;4924279;29;20400;-86
2023/10/30 06:02:45;;;;;;;19.20;12.20;;;12.10;99.90;;;;;;4924306;29;20553;-84
2023/10/30 06:05:14;;;;;;;17.70;12.50;;;12.20;99.90;;;;;;4924088;29;20508;-85
2023/10/30 06:07:41;;;;;;;17.20;11.57;;;12.30;99.90;;;;;;4923841;29;20547;-85
2023/10/30 06:10:10;;;;;;;20.02;11.45;;;12.50;99.90;;;;;;4940046;29;20035;-85
2023/10/30 06:12:41;;;;;;;18.45;11.82;;;12.70;99.90;;;;;;4924149;29;20023;-85
2023/10/30 06:15:12;;;;;;;18.63;14.20;;;13.20;99.90;;;;;;4924310;29;20041;-85
2023/10/30 06:17:39;;;;;;;20.40;14.43;;;13.50;99.90;;;;;;4939599;29;20031;-84
2023/10/30 06:20:07;;;;;;;16.67;15.02;;;13.90;99.90;;;;;;4920209;29;20027;-84
2023/10/30 06:22:34;;;;;;;19.38;17.10;;;14.30;99.90;;;;;;4904491;29;20058;-86
2023/10/30 06:25:01;;;;;;;20.92;18.98;;;14.70;99.90;;;;;;4910722;29;20035;-84
2023/10/30 06:27:27;;;;;;;22.60;20.60;;;15.00;99.90;;;;;;4920382;29;20612;-84
2023/10/30 06:29:54;;;;;;;24.00;21.80;;;15.30;99.90;;;;;;4904457;29;20028;-87
2023/10/30 06:32:24;;;;;;;25.15;22.77;;;15.70;99.90;;;;;;4924477;29;20059;-85
2023/10/30 06:34:50;;;;;;;28.48;25.75;;;16.00;99.90;;;;;;4908711;29;20118;-87
2023/10/30 06:37:17;;;;;;;27.95;25.38;;;16.40;99.90;;;;;;4908971;29;20020;-89
2023/10/30 06:39:45;;;;;;;25.33;23.13;;;16.70;99.90;;;;;;4913771;29;20061;-88
2023/10/30 06:42:11;;;;;;;30.35;24.38;;;17.00;99.90;;;;;;4905271;29;20024;-90
2023/10/30 06:44:39;;;;;;;27.38;24.67;;;17.30;99.90;;;;;;4948663;24;20063;-90
2023/10/30 06:47:06;;;;;;;32.58;28.00;;;17.60;99.90;;;;;;4936831;29;20047;-92
2023/10/30 06:49:35;;;;;;;32.75;27.75;;;17.90;99.90;;;;;;4925873;29;20039;-92
2023/10/30 06:54:45;;;;;;;39.28;30.55;;;18.60;99.90;;;;;;5657814;23;20054;-90
2023/10/30 06:57:12;;;;;;;38.30;30.65;;;18.90;99.90;;;;;;4963885;28;20499;-86
2023/10/30 06:59:39;;;;;;;42.03;29.20;;;19.20;99.90;;;;;;4958518;28;20503;-88
2023/10/30 07:02:05;;;;;;;36.10;30.13;;;19.50;99.90;;;;;;4958003;28;20491;-86
2023/10/30 07:04:32;;;;;;;39.03;30.27;;;19.90;99.90;;;;;;4957844;28;20027;-87
2023/10/30 07:06:58;;;;;;;35.08;29.85;;;20.40;99.90;;;;;;4958076;28;20163;-87
2023/10/30 07:09:25;;;;;;;33.55;30.05;;;20.50;99.90;;;;;;4954150;28;20026;-86
2023/10/30 07:11:51;;;;;;;32.13;28.65;;;20.70;99.90;;;;;;4957784;28;20054;-87
2023/10/30 07:14:18;;;;;;;31.42;28.15;;;20.80;99.90;;;;;;4941858;28;20053;-87
2023/10/30 07:16:45;;;;;;;28.95;26.30;;;20.90;99.90;;;;;;4941949;28;20126;-86
2023/10/30 07:19:15;;;;;;;27.35;24.90;;;21.20;99.90;;;;;;4959225;28;20031;-84
2023/10/30 07:21:42;;;;;;;27.58;24.63;;;21.30;99.90;;;;;;4974538;28;20031;-83
2023/10/30 07:24:09;;;;;;;26.42;23.98;;;21.50;99.90;;;;;;4974373;28;20027;-83
2023/10/30 07:26:35;;;;;;;24.88;22.98;;;21.70;99.90;;;;;;4974515;28;20062;-83
2023/10/30 07:29:02;;;;;;;26.45;23.80;;;21.80;99.90;;;;;;4953610;29;20016;-83
2023/10/30 07:31:28;;;;;;;29.25;24.75;;;21.80;99.90;;;;;;4953816;29;20078;-83
2023/10/30 07:33:55;;;;;;;23.92;21.75;;;21.90;99.90;;;;;;4955181;28;20034;-84
2023/10/30 07:36:22;;;;;;;23.55;21.33;;;22.10;99.90;;;;;;4955143;28;20031;-85
2023/10/30 07:38:52;;;;;;;23.73;21.60;;;22.10;99.90;;;;;;4958562;28;20030;-84
2023/10/30 07:41:18;;;;;;;24.77;21.80;;;22.20;99.90;;;;;;4941776;29;20024;-84
2023/10/30 07:43:45;;;;;;;23.33;21.30;;;22.20;99.90;;;;;;4957241;29;20086;-83
2023/10/30 07:46:14;;;;;;;22.92;21.00;;;22.20;99.90;;;;;;4958684;28;20515;-83
2023/10/30 07:48:41;;;;;;;24.25;21.58;;;22.20;99.90;;;;;;4942045;28;20062;-82
2023/10/30 07:51:08;;;;;;;23.83;21.85;;;22.40;99.90;;;;;;4960979;28;20039;-83
2023/10/30 07:53:34;;;;;;;23.75;21.85;;;22.60;99.90;;;;;;4960692;28;20097;-83
2023/10/30 07:56:01;;;;;;;24.65;22.05;;;23.00;99.90;;;;;;4977613;28;20070;-83
2023/10/30 07:58:27;;;;;;;23.88;21.80;;;23.10;99.90;;;;;;4977878;28;20036;-83
2023/10/30 08:00:54;;;;;;;23.70;21.83;;;23.20;99.90;;;;;;4957250;29;20373;-85
2023/10/30 08:03:20;;;;;;;24.60;22.20;;;23.20;99.90;;;;;;4958462;28;20020;-83
2023/10/30 08:05:47;;;;;;;24.23;22.25;;;23.30;99.90;;;;;;4961875;28;20042;-84
2023/10/30 08:08:17;;;;;;;24.20;22.20;;;23.10;99.90;;;;;;4967749;28;20111;-84
2023/10/30 08:10:47;;;;;;;24.17;22.10;;;23.00;99.90;;;;;;4952941;28;20031;-84
2023/10/30 08:13:16;;;;;;;24.70;22.42;;;23.00;99.90;;;;;;4958597;28;20522;-84
2023/10/30 08:15:48;;;;;;;25.55;23.35;;;23.30;99.90;;;;;;4959293;28;20390;-84
2023/10/30 08:18:19;;;;;;;25.50;22.83;;;23.50;99.90;;;;;;4953089;28;20059;-86
2023/10/30 08:20:46;;;;;;;26.58;24.02;;;23.70;99.90;;;;;;4968353;28;20031;-85
2023/10/30 08:23:13;;;;;;;24.95;22.73;;;23.80;99.90;;;;;;4978827;28;20053;-84
2023/10/30 08:25:40;;;;;;;26.05;24.02;;;23.70;99.90;;;;;;4970827;28;20073;-85
2023/10/30 08:28:10;;;;;;;26.48;24.45;;;23.60;99.90;;;;;;4950155;28;20108;-85
2023/10/30 08:30:37;;;;;;;26.05;23.90;;;23.80;99.90;;;;;;4969244;28;20457;-85
2023/10/30 08:33:04;;;;;;;26.77;24.60;;;23.80;99.90;;;;;;4954724;28;20023;-85
2023/10/30 08:35:34;;;;;;;27.10;25.02;;;23.90;99.90;;;;;;4978026;28;20037;-84
2023/10/30 08:38:04;;;;;;;27.70;25.52;;;23.80;99.90;;;;;;4951884;28;20031;-84
2023/10/30 08:40:35;;;;;;;28.77;26.55;;;24.00;99.90;;;;;;4967494;28;20255;-85
2023/10/30 08:43:01;;;;;;;28.98;26.73;;;23.80;99.90;;;;;;4956013;28;20510;-89
2023/10/30 08:45:28;;;;;;;28.27;26.10;;;23.80;99.90;;;;;;4957091;28;20031;-90
2023/10/30 08:47:54;;;;;;;28.20;26.02;;;23.70;99.90;;;;;;4957936;28;20195;-91
2023/10/30 08:50:24;;;;;;;28.02;25.90;;;23.80;99.90;;;;;;4952201;28;20167;-87
2023/10/30 08:52:51;;;;;;;29.02;26.73;;;24.00;99.90;;;;;;4957609;29;20027;-92
2023/10/30 08:55:17;;;;;;;27.60;25.60;;;23.90;99.90;;;;;;4964804;28;20042;-91
2023/10/30 08:57:44;;;;;;;28.35;26.27;;;24.00;99.90;;;;;;4980093;28;20488;-91
2023/10/30 09:00:11;;;;;;;28.08;25.77;;;24.10;99.90;;;;;;4957698;29;20024;-93
2023/10/30 09:02:39;;;;;;;27.75;25.75;;;24.20;99.90;;;;;;4973562;28;20058;-92
2023/10/30 09:05:06;;;;;;;30.10;27.55;;;24.40;99.90;;;;;;4961062;28;20030;-92
2023/10/30 09:07:32;;;;;;;27.98;25.98;;;24.30;99.90;;;;;;4951417;29;20031;-93
2023/10/30 09:09:59;;;;;;;28.67;26.45;;;24.10;99.90;;;;;;4957221;28;20034;-93
2023/10/30 09:12:25;;;;;;;27.88;25.90;;;24.30;99.90;;;;;;4957125;28;20389;-90
2023/10/30 09:14:55;;;;;;;28.20;26.10;;;24.40;99.90;;;;;;4964077;28;20696;-92
2023/10/30 09:17:21;;;;;;;28.08;26.08;;;24.60;99.90;;;;;;4957129;29;20031;-91
2023/10/30 09:19:48;;;;;;;28.25;26.30;;;24.70;99.90;;;;;;4957314;29;20035;-91
2023/10/30 09:22:16;;;;;;;29.35;27.10;;;24.70;99.90;;;;;;4967038;28;20506;-90
2023/10/30 09:24:43;;;;;;;29.27;27.13;;;24.50;99.90;;;;;;4964044;28;20018;-89
2023/10/30 09:27:09;;;;;;;28.90;26.50;;;24.60;99.90;;;;;;4963836;28;20407;-91
2023/10/30 09:29:36;;;;;;;28.10;26.20;;;24.80;99.90;;;;;;4963849;28;20030;-88
2023/10/30 09:32:06;;;;;;;29.88;27.38;;;24.80;99.90;;;;;;4966386;29;20047;-89
2023/10/30 09:34:34;;;;;;;29.80;27.00;;;24.80;99.90;;;;;;4955810;29;20102;-88
2023/10/30 09:37:04;;;;;;;28.10;26.10;;;24.90;99.90;;;;;;4948293;29;20023;-89
2023/10/30 09:39:31;;;;;;;28.85;26.85;;;24.90;99.90;;;;;;4951691;29;20033;-89
2023/10/30 09:42:00;;;;;;;28.65;26.23;;;24.80;99.90;;;;;;4955305;28;20054;-90
2023/10/30 09:44:29;;;;;;;29.55;27.10;;;24.90;99.90;;;;;;4966370;28;20034;-87
2023/10/30 09:46:57;;;;;;;28.42;26.10;;;24.90;99.90;;;;;;4966800;28;20041;-89
2023/10/30 09:49:28;;;;;;;28.38;26.33;;;25.00;99.90;;;;;;4966913;28;20073;-89
2023/10/30 09:51:59;;;;;;;28.70;26.50;;;25.10;99.90;;;;;;4964360;28;20387;-89
2023/10/30 09:54:27;;;;;;;29.02;26.73;;;25.10;99.90;;;;;;4965436;28;20104;-91
2023/10/30 09:56:54;;;;;;;28.45;26.52;;;25.10;99.90;;;;;;4959227;28;20093;-90
2023/10/30 09:59:22;;;;;;;30.23;27.70;;;25.00;99.90;;;;;;4959691;28;20039;-91
2023/10/30 10:01:49;;;;;;;28.08;26.17;;;24.90;99.90;;;;;;4955971;29;20473;-91
2023/10/30 10:04:15;;;;;;;29.55;27.20;;;24.70;99.90;;;;;;4940551;29;20039;-88
2023/10/30 10:06:43;;;;;;;28.95;26.90;;;24.80;99.90;;;;;;4940134;29;20031;-90
2023/10/30 10:09:09;;;;;;;29.33;26.90;;;25.00;99.90;;;;;;4940286;29;20552;-88
2023/10/30 10:11:36;;;;;;;28.55;26.55;;;25.00;99.90;;;;;;4940345;29;20031;-89
2023/10/30 10:14:04;;;;;;;29.27;26.95;;;24.80;99.90;;;;;;4940516;29;20111;-87
2023/10/30 10:16:31;;;;;;;29.30;27.05;;;24.70;99.90;;;;;;4940308;29;20031;-88
2023/10/30 10:18:58;;;;;;;29.35;27.10;;;24.80;99.90;;;;;;4940316;29;20031;-88
2023/10/30 10:21:24;;;;;;;28.75;26.55;;;24.90;99.90;;;;;;4940316;29;20028;-88
2023/10/30 10:23:50;;;;;;;28.85;26.65;;;25.00;99.90;;;;;;4940295;29;20081;-88
2023/10/30 10:26:17;;;;;;;28.45;26.45;;;25.10;99.90;;;;;;4940002;29;20190;-89
2023/10/30 10:28:48;;;;;;;29.80;27.48;;;25.10;99.90;;;;;;4940494;29;20023;-87
2023/10/30 10:31:16;;;;;;;29.90;27.45;;;25.10;99.90;;;;;;4958341;28;20031;-88
2023/10/30 10:33:47;;;;;;;28.15;26.05;;;24.60;99.90;;;;;;4959589;28;20029;-87
2023/10/30 10:36:14;;;;;;;29.27;27.13;;;24.80;99.90;;;;;;4959402;28;20174;-88
2023/10/30 10:38:57;;;;;;;27.50;25.70;;;24.80;99.90;;;;;;4955497;29;20031;-89
2023/10/30 10:41:26;;;;;;;28.77;26.38;;;24.90;99.90;;;;;;4939982;29;20039;-88
2023/10/30 10:43:55;;;;;;;27.90;26.08;;;24.70;99.90;;;;;;4955865;29;20510;-89
2023/10/30 10:46:21;;;;;;;28.25;26.45;;;24.90;99.90;;;;;;4955030;28;20039;-90
2023/10/30 10:48:48;;;;;;;29.13;26.95;;;24.80;99.90;;;;;;4958946;28;20031;-89
2023/10/30 10:51:24;;;;;;;28.73;26.63;;;24.70;99.90;;;;;;4955377;29;20424;-89
2023/10/30 10:53:53;;;;;;;29.45;26.90;;;24.70;99.90;;;;;;4939599;29;20031;-90
2023/10/30 10:56:22;;;;;;;28.92;26.73;;;24.50;99.90;;;;;;4939404;29;20051;-89
2023/10/30 10:59:00;;;;;;;28.67;26.27;;;24.40;99.90;;;;;;4951164;28;20107;-90
2023/10/30 11:01:30;;;;;;;27.92;25.63;;;24.30;99.90;;;;;;4955624;29;20031;-89
2023/10/30 11:03:57;;;;;;;27.90;25.65;;;24.60;99.90;;;;;;4939563;29;20047;-90
2023/10/30 11:06:34;;;;;;;28.30;26.20;;;24.40;99.90;;;;;;4938954;29;20043;-85
2023/10/30 11:09:15;;;;;;;28.33;25.85;;;24.40;99.90;;;;;;4938853;29;20038;-85
2023/10/30 11:11:55;;;;;;;28.90;26.80;;;24.60;99.90;;;;;;4941026;28;20113;-87
2023/10/30 11:14:40;;;;;;;28.60;26.73;;;24.70;99.90;;;;;;4958182;28;20046;-88
2023/10/30 11:17:07;;;;;;;28.27;26.27;;;24.80;99.90;;;;;;4958584;28;20027;-87
2023/10/30 11:19:38;;;;;;;27.98;25.98;;;24.80;99.90;;;;;;4958541;28;20027;-88
2023/10/30 11:22:05;;;;;;;28.13;26.13;;;24.90;99.90;;;;;;4957896;28;20030;-89
2023/10/30 11:24:42;;;;;;;28.08;26.08;;;24.90;99.90;;;;;;4958243;28;20027;-88
2023/10/30 11:27:28;;;;;;;28.50;26.33;;;24.70;99.90;;;;;;4958332;28;20523;-88
2023/10/30 11:30:07;;;;;;;28.15;26.15;;;24.40;99.90;;;;;;4958447;28;20492;-88
2023/10/30 11:32:52;;;;;;;27.83;25.80;;;24.20;99.90;;;;;;4958202;28;20033;-87
2023/10/30 11:35:23;;;;;;;29.15;26.92;;;24.30;99.90;;;;;;4958629;28;20026;-89
2023/10/30 11:37:52;;;;;;;28.33;26.10;;;24.20;99.90;;;;;;4961888;28;20094;-87
2023/10/30 11:40:19;;;;;;;28.30;26.20;;;24.20;99.90;;;;;;4955995;29;20023;-88
2023/10/30 11:42:46;;;;;;;27.83;25.83;;;24.20;99.90;;;;;;4949741;28;20050;-87
2023/10/30 11:45:24;;;;;;;27.65;25.58;;;24.40;99.90;;;;;;4957931;28;20042;-87
2023/10/30 11:48:05;;;;;;;28.38;26.20;;;24.50;99.90;;;;;;4958032;28;20050;-88
2023/10/30 11:50:35;;;;;;;28.63;26.42;;;24.60;99.90;;;;;;4954653;29;20031;-88
2023/10/30 11:53:17;;;;;;;28.15;26.20;;;24.70;99.90;;;;;;4951047;28;20023;-89
2023/10/30 11:55:50;;;;;;;29.60;27.13;;;24.50;99.90;;;;;;4975452;28;20061;-87
2023/10/30 11:58:19;;;;;;;29.42;26.65;;;24.30;99.90;;;;;;4959023;28;20392;-86
2023/10/30 12:00:47;;;;;;;29.25;27.10;;;24.30;99.90;;;;;;4959023;28;20035;-87
2023/10/30 12:03:14;;;;;;;29.02;26.35;;;24.30;99.90;;;;;;4958803;28;20085;-88
2023/10/30 12:05:41;;;;;;;28.40;26.38;;;24.30;99.90;;;;;;4958319;28;20034;-89
2023/10/30 12:08:10;;;;;;;29.17;26.98;;;24.50;99.90;;;;;;4973848;28;20489;-89
2023/10/30 12:10:38;;;;;;;28.80;26.90;;;24.50;99.90;;;;;;4957783;28;20030;-87
2023/10/30 12:13:10;;;;;;;29.50;27.33;;;24.40;99.90;;;;;;4954521;29;20031;-88
2023/10/30 12:15:36;;;;;;;37.97;34.28;;;24.40;99.90;;;;;;4938299;29;20487;-87
2023/10/30 12:18:06;;;;;;;29.85;27.40;;;24.50;99.90;;;;;;4954186;29;20485;-87
2023/10/30 12:20:35;;;;;;;29.70;27.45;;;24.70;99.90;;;;;;4938238;29;20118;-87
2023/10/30 12:23:01;;;;;;;29.52;27.13;;;24.90;99.90;;;;;;4946010;28;20053;-82
2023/10/30 12:25:28;;;;;;;29.27;27.00;;;25.00;99.90;;;;;;4972935;28;20035;-84
2023/10/30 12:28:01;;;;;;;29.83;27.33;;;25.00;99.90;;;;;;4956953;29;20455;-83
2023/10/30 12:30:35;;;;;;;29.58;27.33;;;24.90;99.90;;;;;;4967231;28;20027;-82
2023/10/30 12:33:02;;;;;;;28.70;26.90;;;25.00;99.90;;;;;;4975957;28;20035;-82
2023/10/30 12:35:29;;;;;;;29.65;27.48;;;25.10;99.90;;;;;;4976175;28;20030;-82